createdAt,value
2022-12-14T00:00:03.440Z,69.82
2022-12-14T00:03:02.719Z,69.99
2022-12-14T00:05:31.765Z,70.07
2022-12-14T00:08:00.673Z,70.08
2022-12-14T00:10:29.882Z,70.04
2022-12-14T00:12:58.735Z,70.17
2022-12-14T00:15:27.871Z,70.22
2022-12-14T00:17:56.678Z,70.22
2022-12-14T00:20:27.583Z,70.28
2022-12-14T00:22:57.914Z,70.28
2022-12-14T00:25:26.667Z,70.40
2022-12-14T00:27:55.450Z,70.47
2022-12-14T00:30:24.287Z,70.66
2022-12-14T00:32:53.550Z,70.84
2022-12-14T00:35:23.090Z,70.89
2022-12-14T00:37:51.816Z,70.75
2022-12-14T00:40:20.508Z,70.77
2022-12-14T00:42:49.229Z,70.85
2022-12-14T00:45:17.949Z,71.01
2022-12-14T00:47:46.726Z,71.02
2022-12-14T00:50:15.436Z,71.07
2022-12-14T00:52:44.159Z,71.19
2022-12-14T00:55:12.849Z,71.34
2022-12-14T00:57:41.581Z,71.35
2022-12-14T01:00:11.940Z,71.51
2022-12-14T01:02:40.772Z,71.55
2022-12-14T01:05:10.565Z,71.64
2022-12-14T01:07:39.228Z,71.66
2022-12-14T01:10:09.071Z,71.71
2022-12-14T01:12:37.835Z,71.81
2022-12-14T01:15:07.260Z,71.82
2022-12-14T01:17:36.124Z,72.04
2022-12-14T01:20:06.032Z,72.01
2022-12-14T01:22:34.796Z,71.77
2022-12-14T01:25:05.361Z,71.88
2022-12-14T01:27:34.105Z,71.81
2022-12-14T01:30:04.486Z,71.78
2022-12-14T01:32:34.982Z,71.76
2022-12-14T01:35:04.064Z,71.90
2022-12-14T01:37:32.952Z,72.04
2022-12-14T01:40:01.599Z,72.11
2022-12-14T01:42:30.463Z,72.10
2022-12-14T01:44:59.183Z,72.11
2022-12-14T01:47:40.928Z,72.21
2022-12-14T01:50:26.464Z,72.22
2022-12-14T01:53:02.824Z,72.27
2022-12-14T01:55:38.452Z,72.39
2022-12-14T01:58:26.382Z,72.41
2022-12-14T02:00:58.530Z,72.41
2022-12-14T02:03:37.121Z,72.39
2022-12-14T02:06:19.918Z,72.36
2022-12-14T02:08:52.500Z,72.42
2022-12-14T02:11:38.856Z,72.50
2022-12-14T02:14:07.539Z,72.57
2022-12-14T02:16:38.729Z,72.57
2022-12-14T02:19:07.449Z,72.45
2022-12-14T02:22:15.311Z,72.47
2022-12-14T02:25:11.959Z,72.40
2022-12-14T02:28:11.138Z,72.35
2022-12-14T02:30:42.866Z,72.28
2022-12-14T02:33:53.935Z,72.33
2022-12-14T02:36:40.116Z,72.32
2022-12-14T02:39:28.467Z,72.40
2022-12-14T02:42:20.257Z,72.52
2022-12-14T02:45:11.108Z,72.45
2022-12-14T02:47:59.872Z,72.55
2022-12-14T02:51:08.682Z,72.58
2022-12-14T02:53:57.069Z,72.67
2022-12-14T02:56:37.502Z,72.71
2022-12-14T02:59:08.433Z,72.64
2022-12-14T03:01:39.227Z,72.65
2022-12-14T03:04:08.366Z,72.65
2022-12-14T03:06:37.452Z,72.54
2022-12-14T03:09:17.644Z,72.59
2022-12-14T03:11:56.330Z,72.53
2022-12-14T03:14:43.575Z,72.58
2022-12-14T03:17:19.879Z,72.55
2022-12-14T03:20:13.548Z,72.70
2022-12-14T03:22:47.286Z,72.95
2022-12-14T03:25:46.392Z,73.07
2022-12-14T03:28:26.864Z,73.03
2022-12-14T03:31:11.157Z,73.03
2022-12-14T03:33:43.070Z,72.83
2022-12-14T03:36:32.736Z,72.74
2022-12-14T03:39:06.758Z,72.69
2022-12-14T03:42:08.031Z,72.65
2022-12-14T03:45:03.710Z,72.76
2022-12-14T03:48:15.716Z,72.63
2022-12-14T03:50:53.004Z,72.56
2022-12-14T03:53:47.779Z,72.55
2022-12-14T03:56:16.428Z,72.33
2022-12-14T03:59:25.766Z,72.24
2022-12-14T04:02:46.942Z,72.17
2022-12-14T04:05:55.360Z,72.06
2022-12-14T04:08:42.017Z,72.13
2022-12-14T04:11:35.201Z,72.30
2022-12-14T04:14:44.729Z,72.46
2022-12-14T04:17:38.577Z,72.16
2022-12-14T04:20:20.345Z,71.95
2022-12-14T04:22:58.687Z,71.67
2022-12-14T04:25:54.270Z,71.71
2022-12-14T04:29:12.528Z,71.65
2022-12-14T04:31:49.254Z,71.57
2022-12-14T04:34:21.306Z,71.78
2022-12-14T04:36:58.704Z,71.65
2022-12-14T04:39:39.536Z,71.74
2022-12-14T04:42:10.876Z,71.97
2022-12-14T04:44:49.896Z,71.87
2022-12-14T04:47:19.949Z,71.94
2022-12-14T04:50:06.500Z,71.93
2022-12-14T04:52:46.523Z,71.98
2022-12-14T04:55:28.529Z,71.95
2022-12-14T04:58:12.847Z,71.81
2022-12-14T05:01:20.119Z,71.75
2022-12-14T05:04:12.929Z,71.61
2022-12-14T05:07:00.187Z,71.86
2022-12-14T05:09:39.249Z,71.67
2022-12-14T05:12:18.479Z,71.91
2022-12-14T05:15:10.681Z,71.89
2022-12-14T05:17:41.825Z,71.95
2022-12-14T05:20:20.962Z,72.05
2022-12-14T05:22:50.777Z,72.09
2022-12-14T05:25:19.467Z,72.09
2022-12-14T05:27:48.181Z,72.15
2022-12-14T05:30:17.014Z,72.07
2022-12-14T05:32:45.861Z,72.12
2022-12-14T05:35:15.905Z,72.17
2022-12-14T05:37:44.810Z,72.01
2022-12-14T05:40:13.982Z,71.94
2022-12-14T05:42:45.368Z,72.03
2022-12-14T05:45:16.636Z,71.94
2022-12-14T05:47:45.472Z,71.86
2022-12-14T05:50:14.373Z,71.86
2022-12-14T05:52:43.054Z,72.06
2022-12-14T05:55:11.754Z,71.89
2022-12-14T05:57:40.398Z,71.89
2022-12-14T06:00:11.077Z,71.94
2022-12-14T06:02:39.864Z,71.92
2022-12-14T06:05:09.116Z,71.86
2022-12-14T06:07:37.840Z,71.83
2022-12-14T06:10:07.059Z,71.77
2022-12-14T06:12:35.810Z,71.76
2022-12-14T06:15:05.291Z,71.98
2022-12-14T06:17:34.107Z,71.94
2022-12-14T06:20:02.916Z,71.71
2022-12-14T06:22:31.690Z,71.76
2022-12-14T06:25:00.366Z,71.91
2022-12-14T06:27:29.382Z,72.04
2022-12-14T06:29:58.257Z,72.15
2022-12-14T06:32:26.982Z,71.87
2022-12-14T06:34:55.948Z,71.69
2022-12-14T06:37:24.767Z,71.82
2022-12-14T06:39:54.536Z,71.76
2022-12-14T06:42:25.359Z,71.80
2022-12-14T06:44:54.080Z,71.77
2022-12-14T06:47:22.818Z,71.72
2022-12-14T06:49:51.571Z,71.60
2022-12-14T06:52:26.402Z,71.69
2022-12-14T06:54:55.489Z,71.56
2022-12-14T06:57:24.179Z,71.57
2022-12-14T06:59:53.073Z,71.57
2022-12-14T07:02:21.894Z,71.44
2022-12-14T07:04:50.809Z,71.48
2022-12-14T07:07:19.514Z,71.55
2022-12-14T07:09:48.780Z,71.58
2022-12-14T07:12:17.470Z,71.61
2022-12-14T07:14:46.222Z,71.61
2022-12-14T07:17:14.990Z,71.74
2022-12-14T07:19:44.179Z,71.72
2022-12-14T07:22:18.002Z,71.69
2022-12-14T07:24:46.881Z,71.77
2022-12-14T07:27:18.842Z,71.63
2022-12-14T07:29:47.550Z,71.64
2022-12-14T07:32:16.235Z,71.74
2022-12-14T07:34:44.966Z,71.79
2022-12-14T07:37:13.957Z,71.81
2022-12-14T07:39:43.164Z,71.66
2022-12-14T07:42:13.118Z,71.58
2022-12-14T07:44:44.971Z,71.79
2022-12-14T07:47:16.734Z,71.89
2022-12-14T07:49:45.704Z,71.93
2022-12-14T07:52:18.930Z,72.02
2022-12-14T07:54:48.693Z,72.04
2022-12-14T07:57:17.401Z,72.01
2022-12-14T07:59:46.245Z,72.04
2022-12-14T08:02:15.480Z,72.10
2022-12-14T08:04:44.586Z,72.04
2022-12-14T08:07:13.487Z,71.91
2022-12-14T08:09:42.174Z,71.71
2022-12-14T08:12:10.931Z,71.56
2022-12-14T08:14:39.801Z,71.42
2022-12-14T08:17:08.605Z,71.42
2022-12-14T08:19:37.420Z,71.35
2022-12-14T08:22:07.185Z,71.25
2022-12-14T08:24:35.917Z,71.21
2022-12-14T08:27:04.783Z,71.42
2022-12-14T08:29:33.506Z,71.35
2022-12-14T08:32:02.820Z,71.33
2022-12-14T08:34:31.583Z,71.22
2022-12-14T08:37:00.269Z,71.35
2022-12-14T08:39:29.027Z,71.44
2022-12-14T08:41:57.831Z,71.24
2022-12-14T08:44:26.707Z,71.22
2022-12-14T08:46:55.506Z,71.28
2022-12-14T08:49:27.741Z,71.31
2022-12-14T08:52:00.928Z,71.26
2022-12-14T08:54:29.992Z,71.32
2022-12-14T08:56:58.876Z,71.38
2022-12-14T08:59:59.534Z,71.32
2022-12-14T09:02:16.334Z,71.34
2022-12-14T09:04:45.090Z,71.14
2022-12-14T09:07:13.839Z,71.34
2022-12-14T09:09:42.604Z,71.43
2022-12-14T09:12:11.366Z,71.22
2022-12-14T09:14:40.066Z,71.36
2022-12-14T09:17:08.781Z,71.53
2022-12-14T09:19:37.491Z,71.49
2022-12-14T09:22:06.360Z,71.63
2022-12-14T09:24:35.765Z,71.67
2022-12-14T09:27:04.562Z,71.60
2022-12-14T09:29:33.342Z,71.63
2022-12-14T09:32:02.273Z,71.80
2022-12-14T09:34:34.003Z,71.84
2022-12-14T09:37:04.736Z,71.78
2022-12-14T09:39:34.443Z,71.73
2022-12-14T09:42:08.609Z,71.75
2022-12-14T09:44:49.887Z,71.78
2022-12-14T09:47:37.421Z,71.35
2022-12-14T09:50:14.769Z,71.25
2022-12-14T09:52:48.848Z,70.85
2022-12-14T09:55:29.364Z,70.73
2022-12-14T09:58:29.383Z,70.45
2022-12-14T10:01:18.301Z,70.14
2022-12-14T10:04:25.324Z,69.74
2022-12-14T10:07:24.252Z,69.68
2022-12-14T10:10:26.699Z,69.55
2022-12-14T10:13:23.795Z,69.72
2022-12-14T10:16:11.109Z,69.74
2022-12-14T10:19:01.158Z,69.40
2022-12-14T10:22:00.581Z,69.58
2022-12-14T10:24:43.912Z,69.03
2022-12-14T10:27:37.972Z,68.88
2022-12-14T10:30:21.274Z,69.06
2022-12-14T10:33:05.323Z,69.06
2022-12-14T10:35:42.938Z,68.77
2022-12-14T10:38:25.236Z,68.85
2022-12-14T10:41:07.219Z,68.46
2022-12-14T10:44:01.501Z,67.95
2022-12-14T10:46:50.619Z,67.79
2022-12-14T10:49:38.191Z,67.59
2022-12-14T10:52:18.704Z,67.31
2022-12-14T10:54:58.620Z,66.75
2022-12-14T10:57:28.488Z,66.63
2022-12-14T11:00:09.600Z,67.98
2022-12-14T11:02:44.169Z,69.87
2022-12-14T11:05:37.779Z,67.57
2022-12-14T11:08:08.518Z,64.48
2022-12-14T11:10:40.858Z,62.47
2022-12-14T11:13:21.571Z,61.57
2022-12-14T11:15:53.069Z,61.13
2022-12-14T11:18:31.386Z,61.02
2022-12-14T11:21:05.611Z,60.36
2022-12-14T11:23:40.318Z,60.53
2022-12-14T11:26:42.303Z,60.68
2022-12-14T11:29:31.942Z,60.85
2022-12-14T11:32:01.442Z,60.80
2022-12-14T11:34:40.581Z,61.00
2022-12-14T11:37:30.476Z,61.24
2022-12-14T11:40:04.050Z,61.38
2022-12-14T11:42:34.138Z,61.68
2022-12-14T11:45:25.946Z,62.11
2022-12-14T11:48:13.596Z,62.47
2022-12-14T11:50:44.773Z,62.65
2022-12-14T11:53:18.469Z,62.75
2022-12-14T11:56:00.037Z,62.70
2022-12-14T11:58:35.731Z,63.00
2022-12-14T12:01:26.268Z,62.94
2022-12-14T12:03:58.927Z,62.93
2022-12-14T12:06:30.215Z,62.72
2022-12-14T12:09:02.915Z,62.39
2022-12-14T12:11:34.842Z,62.24
2022-12-14T12:14:22.863Z,62.40
2022-12-14T12:16:53.261Z,62.49
2022-12-14T12:19:30.837Z,62.79
2022-12-14T12:22:05.481Z,62.82
2022-12-14T12:25:24.918Z,62.98
2022-12-14T12:28:11.838Z,63.14
2022-12-14T12:30:45.729Z,63.20
2022-12-14T12:33:58.087Z,63.19
2022-12-14T12:36:27.638Z,63.23
2022-12-14T12:39:06.776Z,63.22
2022-12-14T12:42:18.058Z,63.11
2022-12-14T12:45:41.024Z,63.19
2022-12-14T12:48:16.957Z,63.30
2022-12-14T12:50:51.407Z,63.39
2022-12-14T12:53:40.048Z,63.26
2022-12-14T12:56:26.835Z,63.32
2022-12-14T12:58:56.631Z,63.35
2022-12-14T13:01:50.102Z,63.31
2022-12-14T13:04:36.170Z,63.31
2022-12-14T13:07:21.209Z,63.16
2022-12-14T13:10:05.985Z,63.21
2022-12-14T13:12:43.313Z,63.50
2022-12-14T13:15:33.426Z,63.49
2022-12-14T13:18:40.652Z,63.51
2022-12-14T13:21:29.208Z,63.52
2022-12-14T13:23:59.112Z,63.67
2022-12-14T13:26:59.331Z,63.70
2022-12-14T13:29:40.354Z,63.71
2022-12-14T13:32:44.732Z,63.65
2022-12-14T13:36:08.579Z,63.70
2022-12-14T13:38:47.378Z,63.85
2022-12-14T13:41:34.886Z,63.78
2022-12-14T13:44:40.179Z,63.57
2022-12-14T13:47:23.051Z,63.59
2022-12-14T13:52:50.337Z,63.91
2022-12-14T13:55:28.998Z,63.89
2022-12-14T13:58:19.637Z,64.13
2022-12-14T14:00:58.836Z,64.15
2022-12-14T14:03:37.420Z,64.24
2022-12-14T14:06:12.688Z,64.14
2022-12-14T14:08:44.894Z,64.15
2022-12-14T14:11:39.131Z,64.29
2022-12-14T14:14:48.213Z,64.33
2022-12-14T14:17:35.350Z,64.34
2022-12-14T14:20:36.398Z,64.51
2022-12-14T14:23:14.255Z,64.72
2022-12-14T14:25:51.670Z,64.77
2022-12-14T14:28:30.615Z,64.73
2022-12-14T14:30:59.954Z,64.80
2022-12-14T14:33:49.099Z,65.04
2022-12-14T14:36:35.242Z,65.14
2022-12-14T14:39:54.613Z,65.08
2022-12-14T14:42:24.179Z,65.20
2022-12-14T14:44:59.038Z,65.31
2022-12-14T14:47:40.595Z,65.28
2022-12-14T14:50:25.788Z,65.46
2022-12-14T14:53:11.554Z,65.48
2022-12-14T14:55:53.805Z,65.51
2022-12-14T14:58:38.959Z,65.54
2022-12-14T15:01:31.462Z,65.54
2022-12-14T15:04:16.959Z,65.59
2022-12-14T15:06:58.507Z,65.60
2022-12-14T15:09:35.815Z,65.68
2022-12-14T15:12:40.819Z,65.65
2022-12-14T15:15:37.096Z,65.65
2022-12-14T15:18:16.293Z,65.66
2022-12-14T15:20:54.010Z,65.63
2022-12-14T15:23:23.431Z,65.65
2022-12-14T15:26:01.688Z,65.72
2022-12-14T15:28:30.399Z,65.71
2022-12-14T15:31:00.449Z,65.60
2022-12-14T15:33:34.679Z,65.65
2022-12-14T15:36:17.215Z,65.62
2022-12-14T15:38:55.760Z,65.62
2022-12-14T15:41:29.185Z,65.64
2022-12-14T15:44:00.282Z,65.75
2022-12-14T15:46:40.225Z,65.67
2022-12-14T15:49:23.204Z,65.76
2022-12-14T15:51:53.706Z,65.70
2022-12-14T15:54:26.393Z,65.78
2022-12-14T15:57:00.123Z,65.70
2022-12-14T15:59:36.111Z,65.65
2022-12-14T16:02:28.212Z,65.69
2022-12-14T16:05:01.588Z,65.83
2022-12-14T16:07:39.153Z,65.91
2022-12-14T16:10:34.458Z,65.92
2022-12-14T16:13:19.615Z,65.76
2022-12-14T16:15:50.879Z,65.69
2022-12-14T16:18:20.821Z,65.71
2022-12-14T16:21:02.598Z,65.78
2022-12-14T16:23:37.943Z,65.82
2022-12-14T16:26:14.463Z,65.71
2022-12-14T16:28:43.269Z,65.69
2022-12-14T16:31:14.934Z,65.77
2022-12-14T16:33:44.628Z,65.86
2022-12-14T16:36:25.565Z,65.86
2022-12-14T16:39:21.876Z,65.69
2022-12-14T16:42:02.841Z,65.71
2022-12-14T16:44:34.244Z,65.75
2022-12-14T16:47:03.047Z,65.71
2022-12-14T16:49:40.960Z,65.58
2022-12-14T16:52:11.938Z,65.66
2022-12-14T16:54:41.439Z,65.73
2022-12-14T16:57:24.477Z,65.71
2022-12-14T17:00:02.180Z,65.66
2022-12-14T17:02:40.697Z,65.64
2022-12-14T17:05:20.527Z,65.71
2022-12-14T17:07:50.223Z,65.74
2022-12-14T17:10:23.408Z,65.73
2022-12-14T17:13:00.170Z,65.76
2022-12-14T17:15:34.171Z,65.77
2022-12-14T17:18:05.115Z,65.88
2022-12-14T17:20:36.955Z,65.79
2022-12-14T17:23:09.984Z,65.80
2022-12-14T17:25:42.034Z,65.79
2022-12-14T17:28:28.980Z,65.85
2022-12-14T17:31:01.903Z,65.81
2022-12-14T17:33:31.802Z,65.80
2022-12-14T17:36:01.248Z,65.75
2022-12-14T17:38:31.478Z,65.80
2022-12-14T17:41:00.349Z,65.90
2022-12-14T17:43:29.734Z,65.84
2022-12-14T17:46:01.221Z,65.90
2022-12-14T17:48:30.317Z,65.96
2022-12-14T17:50:59.132Z,65.82
2022-12-14T17:53:31.392Z,65.86
2022-12-14T17:56:00.707Z,66.00
2022-12-14T17:58:29.447Z,66.09
2022-12-14T18:01:01.876Z,66.07
2022-12-14T18:03:36.628Z,66.03
2022-12-14T18:06:06.010Z,66.11
2022-12-14T18:08:34.844Z,66.17
2022-12-14T18:11:11.828Z,66.19
2022-12-14T18:13:44.222Z,66.40
2022-12-14T18:16:17.048Z,66.37
2022-12-14T18:18:46.276Z,66.44
2022-12-14T18:21:50.785Z,66.45
2022-12-14T18:24:25.633Z,66.73
2022-12-14T18:26:57.022Z,66.71
2022-12-14T18:29:26.331Z,66.85
2022-12-14T18:31:55.234Z,66.71
2022-12-14T18:34:24.080Z,66.80
2022-12-14T18:36:52.945Z,66.90
2022-12-14T18:39:22.558Z,66.91
2022-12-14T18:41:51.715Z,67.11
2022-12-14T18:44:20.666Z,67.29
2022-12-14T18:46:49.776Z,67.41
2022-12-14T18:49:18.607Z,67.34
2022-12-14T18:51:47.451Z,67.67
2022-12-14T18:54:16.439Z,67.72
2022-12-14T18:56:45.293Z,67.86
2022-12-14T18:59:18.586Z,67.89
2022-12-14T19:01:47.431Z,68.15
2022-12-14T19:04:16.450Z,68.20
2022-12-14T19:06:46.139Z,68.22
2022-12-14T19:09:15.214Z,68.40
2022-12-14T19:11:44.458Z,68.43
2022-12-14T19:14:13.234Z,68.47
2022-12-14T19:16:42.058Z,68.76
2022-12-14T19:19:10.965Z,68.92
2022-12-14T19:21:40.255Z,68.98
2022-12-14T19:24:09.244Z,69.13
2022-12-14T19:26:39.104Z,69.29
2022-12-14T19:29:07.969Z,69.38
2022-12-14T19:31:36.841Z,69.52
2022-12-14T19:34:05.925Z,69.51
2022-12-14T19:36:34.697Z,69.53
2022-12-14T19:39:03.516Z,69.66
2022-12-14T19:41:32.399Z,69.83
2022-12-14T19:44:01.526Z,69.92
2022-12-14T19:46:30.471Z,70.01
2022-12-14T19:49:00.021Z,70.09
2022-12-14T19:51:29.093Z,70.15
2022-12-14T19:53:58.050Z,70.32
2022-12-14T19:56:26.894Z,70.32
2022-12-14T19:58:58.425Z,70.39
2022-12-14T20:01:31.878Z,70.50
2022-12-14T20:04:02.038Z,70.56
2022-12-14T20:06:32.386Z,70.71
2022-12-14T20:09:05.222Z,70.75
2022-12-14T20:11:34.233Z,70.88
2022-12-14T20:14:03.425Z,70.90
2022-12-14T20:16:32.750Z,70.91
2022-12-14T20:19:02.253Z,71.08
2022-12-14T20:21:31.498Z,71.12
2022-12-14T20:24:01.877Z,71.23
2022-12-14T20:26:30.972Z,71.23
2022-12-14T20:29:01.575Z,71.30
2022-12-14T20:31:31.105Z,71.45
2022-12-14T20:34:05.061Z,71.50
2022-12-14T20:36:34.099Z,71.56
2022-12-14T20:39:05.445Z,71.70
2022-12-14T20:41:34.498Z,71.69
2022-12-14T20:44:11.841Z,71.63
2022-12-14T20:46:44.969Z,71.71
2022-12-14T20:49:18.495Z,71.81
2022-12-14T20:51:48.883Z,71.83
2022-12-14T20:54:19.924Z,71.79
2022-12-14T20:56:49.285Z,71.82
2022-12-14T20:59:19.198Z,71.94
2022-12-14T21:01:55.032Z,71.95
2022-12-14T21:04:25.185Z,71.93
2022-12-14T21:06:54.218Z,72.00
2022-12-14T21:09:23.329Z,72.00
2022-12-14T21:12:10.786Z,71.92
2022-12-14T21:14:48.167Z,72.01
2022-12-14T21:17:17.195Z,72.07
2022-12-14T21:19:46.151Z,72.10
2022-12-14T21:22:19.960Z,72.13
2022-12-14T21:25:06.181Z,72.14
2022-12-14T21:27:39.101Z,72.14
2022-12-14T21:30:13.318Z,72.18
2022-12-14T21:32:42.338Z,72.23
2022-12-14T21:35:13.306Z,72.18
2022-12-14T21:37:42.190Z,72.22
2022-12-14T21:40:31.446Z,72.19
2022-12-14T21:43:00.881Z,72.24
2022-12-14T21:45:29.792Z,72.16
2022-12-14T21:47:58.565Z,72.27
2022-12-14T21:50:27.299Z,72.15
2022-12-14T21:52:56.013Z,72.27
2022-12-14T21:55:24.788Z,72.26
2022-12-14T21:58:12.113Z,72.06
2022-12-14T22:00:40.870Z,72.29
2022-12-14T22:03:10.019Z,72.27
2022-12-14T22:05:39.834Z,72.23
2022-12-14T22:08:08.569Z,72.30
2022-12-14T22:10:37.414Z,72.34
2022-12-14T22:13:06.387Z,72.36
2022-12-14T22:15:35.857Z,72.25
2022-12-14T22:18:04.805Z,72.26
2022-12-14T22:20:33.737Z,72.34
2022-12-14T22:23:02.628Z,72.38
2022-12-14T22:25:34.769Z,72.40
2022-12-14T22:28:06.632Z,72.49
2022-12-14T22:30:35.357Z,72.50
2022-12-14T22:33:05.532Z,72.54
2022-12-14T22:35:34.272Z,72.58
2022-12-14T22:38:03.001Z,72.69
2022-12-14T22:40:32.795Z,72.66
2022-12-14T22:43:01.748Z,72.61
2022-12-14T22:45:30.584Z,72.64
2022-12-14T22:47:59.277Z,72.57
2022-12-14T22:50:30.155Z,72.53
2022-12-14T22:53:01.357Z,72.42
2022-12-14T22:55:34.397Z,72.43
2022-12-14T22:58:09.796Z,72.40
2022-12-14T23:00:38.521Z,72.32
2022-12-14T23:03:07.478Z,72.38
2022-12-14T23:05:38.576Z,72.52
2022-12-14T23:08:07.320Z,72.38
2022-12-14T23:10:54.658Z,72.35
2022-12-14T23:13:41.974Z,72.45
2022-12-14T23:16:29.285Z,72.48
2022-12-14T23:19:16.651Z,72.58
2022-12-14T23:22:03.938Z,72.66
2022-12-14T23:24:51.484Z,72.73
2022-12-14T23:27:39.008Z,72.91
2022-12-14T23:30:28.033Z,73.01
2022-12-14T23:33:15.904Z,73.01
2022-12-14T23:36:03.098Z,72.88
2022-12-14T23:38:50.650Z,72.78
2022-12-14T23:41:37.969Z,72.85
2022-12-14T23:44:25.275Z,72.86
2022-12-14T23:47:12.419Z,72.86
2022-12-14T23:49:59.700Z,72.83
2022-12-14T23:52:47.003Z,72.66
2022-12-14T23:55:34.299Z,72.67
2022-12-14T23:58:21.524Z,72.84
